KCGI

Cape Girardeau Regional Airport

Cape Girardeau, Missouri, USA
KCGI 172000Z 1720/1818 33005KT P6SM OVC011 FM172300 34008KT P6SM BKN015 FM180800 35006KT P6SM BKN010 FM181100 02005KT 4SM BR BKN008 FM181500 05008KT P6SM SCT008 BKN015
Issued Valid From Valid To
Jan-17 @ 20:00 UTC
(4 hours ago)
Jan-17 @ 20:00 UTC
(4 hours ago)
Jan-18 @ 18:00 UTC
(in 18 hours)
Expired Click to View Jan-17 @ 20:00 to Jan-17 @ 23:00
KCGI 172000Z 1720/1818 33005KT P6SM OVC011
Wind Visibility Clouds
330° at 5 knots Greater than 6 miles
  • Overcast at 1,100' AGL
From Jan-17 @ 23:00 to Jan-18 @ 08:00
FM172300 34008KT P6SM BKN015
Wind Visibility Clouds
340° at 8 knots Greater than 6 miles
  • Broken at 1,500' AGL
From Jan-18 @ 08:00 to Jan-18 @ 11:00
FM180800 35006KT P6SM BKN010
Wind Visibility Clouds
350° at 6 knots Greater than 6 miles
  • Broken at 1,000' AGL
From Jan-18 @ 11:00 to Jan-18 @ 15:00
FM181100 02005KT 4SM BR BKN008
Wind Visibility Clouds Conditions
20° at 5 knots 4 miles
  • Broken at 800' AGL
  • Mist
From Jan-18 @ 15:00 to Jan-18 @ 18:00
FM181500 05008KT P6SM SCT008 BKN015
Wind Visibility Clouds
50° at 8 knots Greater than 6 miles
  • Scattered at 800' AGL
  • Broken at 1,500' AGL
KCGI 172000Z 1720/1818 33005KT P6SM OVC011 FM172300 34008KT P6SM BKN015 FM180800 35006KT P6SM BKN010 FM181100 02005KT 4SM BR BKN008 FM181500 05008KT P6SM SCT008 BKN015
Issued Jan-17 @ 20:00 UTC
(4 hours ago)
Valid From Jan-17 @ 20:00 UTC
(4 hours ago)
Valid To Jan-18 @ 18:00 UTC
(in 18 hours)
Jan-17 @ 20:00 - Jan-17 @ 23:00
Wind Visibility
330° at 5 knots Greater than 6 miles
Clouds
  • Overcast at 1,100' AGL
From Jan-17 @ 23:00 - Jan-18 @ 08:00
Wind Visibility
340° at 8 knots Greater than 6 miles
Clouds
  • Broken at 1,500' AGL
From Jan-18 @ 08:00 - Jan-18 @ 11:00
Wind Visibility
350° at 6 knots Greater than 6 miles
Clouds
  • Broken at 1,000' AGL
From Jan-18 @ 11:00 - Jan-18 @ 15:00
Wind Visibility
20° at 5 knots 4 miles
Clouds
  • Broken at 800' AGL
Conditions
  • Mist
From Jan-18 @ 15:00 - Jan-18 @ 18:00
Wind Visibility
50° at 8 knots Greater than 6 miles
Clouds
  • Scattered at 800' AGL
  • Broken at 1,500' AGL